Time;durP1;ratioP1;P1;durP2;ratioP2;P2;SDS_P1;SDS_P2;PMS_P1;PMS_P2;Temp;Humidity;BMP_temperature;BMP_pressure;BME280_temperature;BME280_humidity;BME280_pressure;Samples;Min_cycle;Max_cycle;Signal;HPM_P1;HPM_P2
2022/04/22 00:01:29;;;;;;;6.93;6.23;;;;;;;6.12;79.89;94455.63;5011231;28;20187;-79
2022/04/22 00:03:55;;;;;;;7.00;5.60;;;;;;;6.08;80.15;94452.50;4995044;28;20278;-79
2022/04/22 00:06:20;;;;;;;9.53;6.40;;;;;;;6.03;80.34;94448.75;5011912;28;20186;-79
2022/04/22 00:08:46;;;;;;;7.40;5.60;;;;;;;6.04;80.28;94445.22;5011737;28;20210;-79
2022/04/22 00:11:29;;;;;;;7.50;6.27;;;;;;;5.97;81.21;94443.22;5011165;28;20581;-79
2022/04/22 00:14:00;;;;;;;6.53;5.50;;;;;;;5.93;80.99;94441.91;5015837;28;20593;-79
2022/04/22 00:16:27;;;;;;;7.00;5.90;;;;;;;5.89;81.29;94442.31;5013706;28;20560;-79
2022/04/22 00:18:52;;;;;;;6.90;6.20;;;;;;;5.78;81.77;94438.19;5013230;28;20240;-80
2022/04/22 00:21:18;;;;;;;6.30;5.70;;;;;;;5.80;81.75;94444.00;5012097;28;20187;-79
2022/04/22 00:23:43;;;;;;;7.10;6.07;;;;;;;5.70;82.24;94443.25;5013965;28;20226;-80
2022/04/22 00:26:08;;;;;;;7.10;5.73;;;;;;;5.61;82.61;94429.47;5014221;28;20179;-79
2022/04/22 00:28:34;;;;;;;7.27;6.10;;;;;;;5.35;83.86;94441.41;5011491;28;20195;-79
2022/04/22 00:30:59;;;;;;;8.37;6.43;;;;;;;5.40;84.51;94436.63;5015348;28;20190;-79
2022/04/22 00:33:24;;;;;;;7.50;5.93;;;;;;;5.38;84.15;94436.75;4998431;28;20686;-78
2022/04/22 00:35:50;;;;;;;7.37;6.20;;;;;;;5.59;83.62;94433.16;5015611;28;20187;-79
2022/04/22 00:38:15;;;;;;;8.43;6.53;;;;;;;5.60;83.46;94425.28;5015329;28;20213;-79
2022/04/22 00:40:40;;;;;;;8.37;6.63;;;;;;;5.59;83.82;94428.00;5015212;28;20209;-79
2022/04/22 00:43:21;;;;;;;9.13;6.47;;;;;;;5.61;83.66;94426.09;4998426;28;20191;-79
2022/04/22 00:45:47;;;;;;;9.17;6.80;;;;;;;5.53;84.07;94426.00;5014161;28;20195;-80
2022/04/22 00:48:13;;;;;;;8.80;7.90;;;;;;;5.46;84.73;94424.94;5014929;28;20297;-79
2022/04/22 00:50:39;;;;;;;9.93;7.00;;;;;;;5.43;84.75;94418.31;5016348;28;20227;-79
2022/04/22 00:53:05;;;;;;;9.13;6.57;;;;;;;5.32;84.75;94413.38;5014209;28;20179;-79
2022/04/22 00:55:31;;;;;;;10.63;8.07;;;;;;;5.23;85.22;94411.66;5015022;28;20259;-79
2022/04/22 00:57:58;;;;;;;8.47;6.87;;;;;;;5.17;86.24;94400.16;4998601;28;20199;-78
2022/04/22 01:00:23;;;;;;;9.20;7.17;;;;;;;5.19;86.11;94402.59;5014958;28;20190;-79
2022/04/22 01:02:49;;;;;;;9.50;6.63;;;;;;;5.21;85.79;94406.66;4997915;28;20191;-78
2022/04/22 01:10:42;;;;;;;8.03;7.23;;;;;;;5.12;86.62;94397.19;5015449;28;20237;-80
2022/04/22 01:13:08;;;;;;;9.87;8.03;;;;;;;5.06;86.27;94397.78;4999128;28;20230;-79
2022/04/22 01:15:35;;;;;;;14.10;7.87;;;;;;;5.04;87.62;94390.22;5031230;28;20235;-79
2022/04/22 01:18:00;;;;;;;10.40;8.73;;;;;;;5.13;87.37;94388.53;5033455;28;20191;-79
2022/04/22 01:20:26;;;;;;;10.43;8.37;;;;;;;5.21;87.11;94388.63;5039008;28;20213;-79
2022/04/22 01:22:51;;;;;;;10.33;8.80;;;;;;;5.16;86.97;94382.28;5022042;28;20191;-80
2022/04/22 01:25:16;;;;;;;11.90;9.17;;;;;;;5.10;87.29;94375.94;5025232;28;20199;-80
2022/04/22 01:27:42;;;;;;;10.90;8.43;;;;;;;5.03;87.65;94369.75;5018426;28;20203;-80
2022/04/22 01:30:07;;;;;;;12.37;9.60;;;;;;;4.96;88.41;94373.84;5017012;28;20176;-80
2022/04/22 01:32:33;;;;;;;9.73;8.40;;;;;;;5.06;87.88;94375.44;5016357;28;20171;-80
2022/04/22 01:34:59;;;;;;;11.17;9.03;;;;;;;4.98;88.16;94364.22;5016914;28;20643;-80
2022/04/22 01:37:24;;;;;;;9.70;8.70;;;;;;;4.99;88.36;94360.69;5000327;28;20202;-80
2022/04/22 01:39:49;;;;;;;10.93;9.37;;;;;;;4.94;88.38;94357.72;5016624;28;20178;-80
2022/04/22 01:42:18;;;;;;;12.90;9.57;;;;;;;4.97;89.04;94350.56;5016333;28;20203;-80
2022/04/22 01:44:43;;;;;;;12.00;9.50;;;;;;;4.88;88.10;94353.19;4999499;28;20211;-80
2022/04/22 01:47:08;;;;;;;13.20;9.87;;;;;;;4.80;89.17;94354.69;5016441;28;20662;-80
2022/04/22 01:49:34;;;;;;;10.60;8.90;;;;;;;4.76;89.57;94358.47;5016583;28;20198;-80
2022/04/22 01:52:00;;;;;;;11.93;9.43;;;;;;;4.77;89.55;94349.00;4999646;28;20190;-79
2022/04/22 01:54:25;;;;;;;11.17;8.97;;;;;;;4.60;89.21;94350.56;5000287;28;20175;-80
2022/04/22 01:56:51;;;;;;;11.47;9.77;;;;;;;4.59;89.31;94338.63;5016181;28;20313;-80
2022/04/22 01:59:16;;;;;;;10.70;9.17;;;;;;;4.54;89.19;94345.97;5015843;28;20702;-80
2022/04/22 02:01:41;;;;;;;11.87;9.60;;;;;;;4.54;89.41;94339.09;4998406;28;20198;-80
2022/04/22 02:04:07;;;;;;;11.20;9.27;;;;;;;4.52;89.83;94335.03;4999205;28;20689;-79
2022/04/22 02:06:32;;;;;;;12.67;10.10;;;;;;;4.19;92.16;94326.88;5015381;28;20183;-79
2022/04/22 02:08:58;;;;;;;12.17;10.20;;;;;;;4.16;92.80;94327.16;4999444;28;20207;-80
2022/04/22 02:11:23;;;;;;;13.27;9.43;;;;;;;4.16;92.81;94326.34;4998715;28;20407;-79
2022/04/22 02:13:48;;;;;;;12.33;10.10;;;;;;;4.11;93.11;94324.16;4999078;28;20637;-80
2022/04/22 02:16:14;;;;;;;12.63;10.03;;;;;;;4.07;93.29;94327.97;5015937;28;20565;-80
2022/04/22 02:18:41;;;;;;;13.47;10.07;;;;;;;4.09;92.81;94322.69;5016334;28;20448;-80
2022/04/22 02:21:07;;;;;;;13.47;10.47;;;;;;;4.16;93.24;94322.00;4999307;28;20647;-79
2022/04/22 02:23:33;;;;;;;14.07;10.93;;;;;;;4.09;93.58;94322.69;5015200;28;20190;-80
2022/04/22 02:25:58;;;;;;;13.77;10.53;;;;;;;4.14;93.75;94323.88;4999407;28;20274;-80
2022/04/22 02:28:33;;;;;;;12.63;10.13;;;;;;;4.06;93.77;94321.19;5015078;28;20219;-80
2022/04/22 02:31:05;;;;;;;13.70;11.17;;;;;;;4.06;93.96;94317.81;5015171;28;20237;-80
2022/04/22 02:33:31;;;;;;;13.40;10.90;;;;;;;4.07;94.26;94315.13;4998878;28;20190;-80
2022/04/22 02:35:56;;;;;;;14.20;11.07;;;;;;;4.07;94.82;94310.00;5015330;28;20199;-80
2022/04/22 02:38:22;;;;;;;15.37;11.37;;;;;;;4.01;94.65;94302.03;4998204;28;20290;-80
2022/04/22 02:46:15;;;;;;;17.17;12.40;;;;;;;4.35;94.02;94304.91;5014218;28;20249;-80
2022/04/22 02:48:40;;;;;;;17.73;12.63;;;;;;;4.43;93.75;94297.31;4998135;28;20215;-81
2022/04/22 02:51:05;;;;;;;19.13;12.73;;;;;;;4.42;94.44;94290.56;5014269;28;20187;-79
2022/04/22 02:53:31;;;;;;;21.77;13.87;;;;;;;4.37;94.91;94290.16;5013916;28;20658;-80
2022/04/22 02:55:56;;;;;;;18.90;13.70;;;;;;;4.35;94.38;94294.63;4998476;28;20202;-80
2022/04/22 02:58:22;;;;;;;17.53;14.47;;;;;;;4.38;95.15;94296.91;5015845;28;20215;-81
2022/04/22 03:00:47;;;;;;;16.57;13.47;;;;;;;4.38;95.03;94284.06;5014345;28;20240;-80
2022/04/22 03:03:12;;;;;;;19.67;14.67;;;;;;;4.25;95.44;94280.06;4997555;28;20189;-81
2022/04/22 03:05:38;;;;;;;17.60;13.80;;;;;;;4.15;96.00;94278.44;5013450;28;20222;-81
2022/04/22 03:08:05;;;;;;;19.77;14.00;;;;;;;4.17;95.49;94277.38;4997848;28;20286;-80
2022/04/22 03:10:30;;;;;;;19.73;14.23;;;;;;;4.21;96.50;94278.69;5014009;28;20180;-81
2022/04/22 03:12:56;;;;;;;19.17;15.00;;;;;;;4.15;96.30;94276.72;5013182;28;20191;-80
2022/04/22 03:15:21;;;;;;;20.33;15.63;;;;;;;4.15;96.67;94268.16;5013614;28;20184;-80
2022/04/22 03:17:48;;;;;;;20.87;15.30;;;;;;;4.25;96.43;94268.97;4997309;28;20211;-80
2022/04/22 03:20:14;;;;;;;19.50;15.33;;;;;;;4.15;96.53;94268.16;5013965;28;20175;-80
2022/04/22 03:22:39;;;;;;;20.47;15.53;;;;;;;4.18;96.95;94273.84;5013132;28;20252;-80
2022/04/22 03:25:05;;;;;;;20.30;15.30;;;;;;;4.18;97.21;94266.16;5014164;28;20203;-80
2022/04/22 03:27:30;;;;;;;20.73;16.47;;;;;;;4.04;98.18;94263.19;5013671;28;20275;-81
2022/04/22 03:29:55;;;;;;;22.60;17.07;;;;;;;4.15;97.54;94255.31;4997667;28;20631;-81
2022/04/22 03:32:20;;;;;;;25.33;17.10;;;;;;;4.05;98.09;94257.91;5013396;28;20172;-80
2022/04/22 03:34:46;;;;;;;23.97;18.03;;;;;;;3.99;97.98;94250.78;5030540;28;20179;-80
2022/04/22 03:37:11;;;;;;;22.90;17.67;;;;;;;4.08;99.00;94256.84;5013393;28;20179;-81
2022/04/22 03:39:36;;;;;;;24.33;17.73;;;;;;;4.01;98.95;94260.94;4997310;28;20701;-80
2022/04/22 03:42:02;;;;;;;24.33;18.20;;;;;;;4.00;99.57;94261.88;5013095;28;20278;-80
2022/04/22 03:44:27;;;;;;;22.70;17.33;;;;;;;4.00;99.55;94260.13;5012338;28;20219;-81
2022/04/22 03:46:52;;;;;;;24.33;18.30;;;;;;;3.91;99.46;94258.38;5013266;28;20647;-80
2022/04/22 03:49:18;;;;;;;26.10;19.23;;;;;;;3.96;99.79;94256.19;4996459;28;20246;-80
2022/04/22 03:51:43;;;;;;;28.03;19.63;;;;;;;3.88;99.02;94256.06;5013317;28;20188;-81
2022/04/22 03:54:08;;;;;;;26.77;18.87;;;;;;;3.93;99.80;94259.84;5012940;28;20643;-81
2022/04/22 03:59:18;;;;;;;28.63;20.10;;;;;;;3.89;100.00;94258.53;5006874;28;20708;-79
2022/04/22 04:01:44;;;;;;;28.97;21.23;;;;;;;3.90;100.00;94261.91;5006565;28;20212;-79
2022/04/22 04:04:09;;;;;;;29.83;19.93;;;;;;;3.88;100.00;94253.50;5011755;28;20210;-81
2022/04/22 04:06:35;;;;;;;29.70;20.20;;;;;;;3.91;100.00;94255.81;5009312;28;20183;-80
2022/04/22 04:17:09;;;;;;;33.23;23.37;;;;;;;3.84;100.00;94257.31;5002412;28;20188;-81
2022/04/22 04:25:03;;;;;;;30.27;21.93;;;;;;;3.89;100.00;94262.84;4977458;28;20218;-78
2022/04/22 04:27:29;;;;;;;31.77;22.60;;;;;;;3.80;100.00;94264.50;4991205;28;20200;-85
2022/04/22 04:29:54;;;;;;;30.20;21.17;;;;;;;3.92;100.00;94260.81;4975357;28;20263;-78
2022/04/22 04:32:20;;;;;;;29.53;21.40;;;;;;;4.01;100.00;94259.16;4990677;28;20324;-77
2022/04/22 04:34:45;;;;;;;35.10;22.87;;;;;;;3.93;100.00;94254.72;4991188;28;20180;-78
2022/04/22 04:37:12;;;;;;;33.37;22.53;;;;;;;3.92;100.00;94252.28;4975195;28;20653;-77
2022/04/22 04:39:38;;;;;;;35.60;24.30;;;;;;;3.91;100.00;94255.81;4991123;28;20183;-79
2022/04/22 04:42:03;;;;;;;31.60;23.67;;;;;;;3.98;100.00;94260.25;4989493;28;20547;-80
2022/04/22 04:44:29;;;;;;;33.57;23.47;;;;;;;4.09;100.00;94256.72;4991300;28;20200;-80
2022/04/22 04:46:54;;;;;;;33.27;22.67;;;;;;;4.15;100.00;94260.47;4991577;28;20803;-80
2022/04/22 04:49:20;;;;;;;34.13;23.30;;;;;;;4.23;99.11;94258.00;4990768;28;20207;-80
2022/04/22 04:51:48;;;;;;;29.37;21.23;;;;;;;4.23;99.30;94263.94;4974770;28;20185;-79
2022/04/22 04:54:13;;;;;;;36.00;23.83;;;;;;;4.26;99.26;94260.31;4990933;28;20573;-79
2022/04/22 04:56:39;;;;;;;33.00;23.20;;;;;;;4.43;98.88;94261.34;4991391;28;20187;-79
2022/04/22 04:59:04;;;;;;;32.43;21.93;;;;;;;4.79;98.05;94263.06;4991896;28;20207;-78
2022/04/22 05:01:29;;;;;;;33.87;24.27;;;;;;;5.50;94.03;94262.31;4974799;28;20180;-79
2022/04/22 05:03:54;;;;;;;28.77;21.53;;;;;;;6.11;89.90;94252.97;4992170;28;20215;-79
2022/04/22 05:06:20;;;;;;;26.60;20.27;;;;;;;6.16;87.60;94253.28;4976011;28;20184;-79
2022/04/22 05:08:45;;;;;;;27.73;19.83;;;;;;;6.84;86.77;94261.03;4995144;28;20239;-78
2022/04/22 05:11:11;;;;;;;26.20;19.97;;;;;;;6.59;86.00;94272.22;5002745;28;20521;-79
2022/04/22 05:13:36;;;;;;;29.47;20.47;;;;;;;6.60;85.41;94273.84;5024495;28;20585;-80
2022/04/22 05:16:02;;;;;;;26.33;20.70;;;;;;;6.45;85.71;94266.69;5014244;28;20187;-80
2022/04/22 05:18:27;;;;;;;28.20;19.90;;;;;;;6.43;86.38;94268.59;5019871;28;20206;-84
2022/04/22 05:20:53;;;;;;;27.73;22.47;;;;;;;6.34;86.70;94266.94;4997900;28;20180;-84
2022/04/22 05:23:18;;;;;;;27.30;21.07;;;;;;;6.16;85.83;94268.75;5002416;28;20195;-84
2022/04/22 05:25:43;;;;;;;28.03;21.30;;;;;;;5.91;88.46;94270.38;5028209;28;20231;-80
2022/04/22 05:28:08;;;;;;;27.03;21.13;;;;;;;6.25;87.87;94258.34;5022638;28;20209;-80
2022/04/22 05:33:18;;;;;;;30.07;21.87;;;;;;;6.33;86.52;94262.75;5032174;28;20605;-81
2022/04/22 05:35:43;;;;;;;30.17;22.20;;;;;;;6.01;88.10;94263.38;5032425;28;20187;-81
2022/04/22 05:38:09;;;;;;;28.73;21.87;;;;;;;6.17;88.15;94265.22;5022385;28;20209;-80
2022/04/22 05:40:36;;;;;;;33.30;23.07;;;;;;;5.95;90.12;94274.28;5014279;28;20195;-80
2022/04/22 05:43:03;;;;;;;32.33;24.07;;;;;;;6.30;88.78;94265.63;5030908;28;20217;-80
2022/04/22 05:45:28;;;;;;;29.67;23.03;;;;;;;6.32;88.69;94268.88;5015438;28;20213;-80
2022/04/22 05:47:56;;;;;;;30.27;22.23;;;;;;;6.42;87.45;94268.75;5015655;28;20210;-81
2022/04/22 05:50:22;;;;;;;27.60;22.33;;;;;;;6.41;87.83;94267.13;5010054;28;20658;-80
2022/04/22 05:52:48;;;;;;;31.47;22.50;;;;;;;6.47;87.50;94271.69;5007892;28;20219;-81
2022/04/22 05:55:16;;;;;;;32.27;22.93;;;;;;;6.35;87.95;94265.97;5022013;28;20228;-80
2022/04/22 05:57:46;;;;;;;31.13;23.87;;;;;;;6.76;86.68;94266.97;5022236;28;20244;-81
2022/04/22 06:00:18;;;;;;;30.40;23.03;;;;;;;6.87;85.48;94270.22;5029722;28;20187;-80
2022/04/22 06:02:45;;;;;;;32.57;22.90;;;;;;;6.95;84.85;94262.53;5006718;28;20179;-80
2022/04/22 06:05:15;;;;;;;32.87;22.77;;;;;;;7.29;84.04;94268.41;5007503;28;20220;-80
2022/04/22 06:07:41;;;;;;;30.43;22.70;;;;;;;7.18;84.40;94265.34;5004242;28;20200;-81
2022/04/22 06:12:53;;;;;;;29.53;21.83;;;;;;;7.49;82.19;94263.75;5020988;28;20189;-80
2022/04/22 06:15:18;;;;;;;30.17;22.50;;;;;;;7.37;82.68;94255.53;5009297;28;20630;-80
2022/04/22 06:17:44;;;;;;;29.03;22.93;;;;;;;7.30;83.60;94259.69;5032524;28;20234;-81
2022/04/22 06:20:10;;;;;;;31.77;21.83;;;;;;;7.09;83.95;94264.50;5016887;28;20206;-81
2022/04/22 06:22:35;;;;;;;29.23;22.33;;;;;;;7.44;83.27;94254.91;5027229;28;20561;-81
2022/04/22 06:25:00;;;;;;;30.07;21.80;;;;;;;7.30;83.33;94256.31;5022348;28;20202;-81
2022/04/22 06:27:37;;;;;;;27.73;22.30;;;;;;;7.24;83.50;94259.53;5025841;28;20237;-81
2022/04/22 06:30:13;;;;;;;29.20;22.23;;;;;;;7.41;83.66;94256.00;5038845;28;20177;-81
2022/04/22 06:32:40;;;;;;;27.83;20.70;;;;;;;8.12;80.45;94265.69;5035270;28;20252;-78
2022/04/22 06:35:07;;;;;;;28.43;22.00;;;;;;;8.05;78.98;94262.16;5022396;28;20175;-79
2022/04/22 06:37:37;;;;;;;27.97;21.57;;;;;;;8.07;79.28;94257.63;5015249;28;20268;-80
2022/04/22 06:45:48;;;;;;;26.30;20.83;;;;;;;8.18;78.41;94257.28;5023322;28;20290;-81
2022/04/22 06:48:31;;;;;;;27.90;20.80;;;;;;;8.52;76.66;94261.44;5018221;28;20206;-80
2022/04/22 06:50:57;;;;;;;27.50;21.20;;;;;;;8.68;76.00;94255.41;5047347;28;20542;-80
2022/04/22 06:53:23;;;;;;;27.07;20.17;;;;;;;8.68;74.88;94258.81;5024262;28;20171;-81
2022/04/22 06:55:50;;;;;;;26.90;21.13;;;;;;;8.75;74.85;94257.19;5017099;28;20214;-80
2022/04/22 06:58:17;;;;;;;29.70;20.53;;;;;;;8.86;75.09;94252.59;4984986;28;20191;-80
2022/04/22 07:00:43;;;;;;;28.60;20.77;;;;;;;8.78;75.25;94251.66;5016176;28;20190;-81
2022/04/22 07:03:09;;;;;;;27.37;21.17;;;;;;;9.62;71.50;94257.81;5025421;28;20399;-80
2022/04/22 07:05:36;;;;;;;25.93;20.67;;;;;;;9.01;72.96;94256.06;5008732;28;20202;-81
2022/04/22 07:08:07;;;;;;;25.63;21.17;;;;;;;9.13;73.50;94249.56;4997379;28;20330;-80
2022/04/22 07:10:34;;;;;;;26.60;21.13;;;;;;;8.99;73.46;94248.47;5046538;28;20174;-81
2022/04/22 07:12:59;;;;;;;27.33;21.47;;;;;;;9.17;72.49;94239.66;5025855;28;20191;-80
2022/04/22 07:15:26;;;;;;;26.37;21.03;;;;;;;8.79;73.93;94237.72;5018101;28;20186;-81
2022/04/22 07:17:52;;;;;;;28.17;22.37;;;;;;;8.41;76.10;94241.13;5019553;28;20203;-81
2022/04/22 07:20:18;;;;;;;27.50;20.83;;;;;;;8.34;75.45;94234.97;4996520;28;20189;-81
2022/04/22 07:22:44;;;;;;;27.30;21.70;;;;;;;8.50;75.25;94235.75;5019184;28;20616;-80
2022/04/22 07:25:10;;;;;;;27.87;22.13;;;;;;;8.48;75.17;94240.28;5020809;28;20246;-81
2022/04/22 07:27:41;;;;;;;26.63;21.83;;;;;;;8.80;75.28;94241.94;5012030;28;20202;-81
2022/04/22 07:30:08;;;;;;;29.53;21.63;;;;;;;8.45;75.81;94245.78;5028248;28;20697;-80
2022/04/22 07:32:37;;;;;;;26.73;21.43;;;;;;;8.85;75.78;94240.63;5004829;28;20687;-80
2022/04/22 07:35:04;;;;;;;28.80;23.07;;;;;;;9.21;72.86;94233.16;5007694;28;20241;-80
2022/04/22 07:37:30;;;;;;;28.93;22.30;;;;;;;9.18;72.91;94234.28;5011797;28;20249;-80
2022/04/22 07:39:55;;;;;;;30.20;21.83;;;;;;;9.03;73.19;94233.44;5028512;28;20190;-80
2022/04/22 07:42:21;;;;;;;24.67;20.83;;;;;;;9.02;73.39;94231.81;5022783;28;20650;-79
2022/04/22 07:47:32;;;;;;;26.73;20.97;;;;;;;9.54;71.67;94231.16;5025521;28;20217;-80
2022/04/22 07:49:58;;;;;;;24.37;20.07;;;;;;;9.80;70.48;94229.00;5026853;28;20211;-81
2022/04/22 07:52:24;;;;;;;25.90;20.23;;;;;;;9.44;70.56;94225.41;5017116;28;20179;-81
2022/04/22 07:54:49;;;;;;;26.33;20.63;;;;;;;9.43;70.34;94234.16;5040181;28;20187;-81
2022/04/22 07:57:14;;;;;;;24.93;21.63;;;;;;;9.55;71.08;94225.00;5006311;28;20213;-80
2022/04/22 07:59:41;;;;;;;24.87;20.53;;;;;;;9.69;71.46;94224.22;5016578;28;20195;-79
2022/04/22 08:02:06;;;;;;;22.90;19.80;;;;;;;9.39;70.49;94223.34;5012933;28;20281;-81
2022/04/22 08:04:32;;;;;;;25.67;21.83;;;;;;;8.53;74.02;94226.84;5024588;28;20219;-82
2022/04/22 08:06:57;;;;;;;26.07;20.60;;;;;;;8.67;74.19;94231.31;5019790;28;20665;-81
2022/04/22 08:09:22;;;;;;;26.60;21.20;;;;;;;9.07;73.80;94229.50;5017839;28;20183;-81
2022/04/22 08:11:48;;;;;;;25.17;20.93;;;;;;;9.27;71.90;94240.22;4995453;28;20187;-83
2022/04/22 08:14:13;;;;;;;25.33;20.50;;;;;;;9.04;73.37;94235.03;5012358;28;20201;-84
2022/04/22 08:16:39;;;;;;;27.87;21.33;;;;;;;9.06;71.81;94227.91;5019697;28;20606;-83
2022/04/22 08:19:05;;;;;;;25.33;21.37;;;;;;;9.30;72.82;94234.72;5004988;28;20289;-82
2022/04/22 08:21:33;;;;;;;24.97;20.97;;;;;;;9.41;72.91;94229.16;5028209;28;20637;-79
2022/04/22 08:24:18;;;;;;;25.40;20.97;;;;;;;9.55;71.26;94232.78;5010320;28;20216;-89
2022/04/22 08:26:44;;;;;;;24.47;21.17;;;;;;;9.33;71.55;94230.00;5001360;28;20224;-79
2022/04/22 08:29:09;;;;;;;24.97;21.53;;;;;;;9.18;72.95;94229.13;5024887;28;20693;-80
2022/04/22 08:31:35;;;;;;;25.70;21.43;;;;;;;9.31;72.95;94234.56;5028879;28;20186;-79
2022/04/22 08:34:00;;;;;;;26.10;20.53;;;;;;;9.82;70.68;94234.84;5025977;28;20185;-80
2022/04/22 08:36:30;;;;;;;25.93;19.93;;;;;;;9.92;71.08;94235.41;5016080;28;20178;-79
2022/04/22 08:38:57;;;;;;;25.93;21.60;;;;;;;9.94;70.72;94241.22;4993162;28;20203;-80
2022/04/22 08:41:22;;;;;;;24.07;20.17;;;;;;;9.99;71.66;94229.53;5006461;28;20182;-81
2022/04/22 08:43:50;;;;;;;28.07;22.20;;;;;;;9.78;72.15;94228.38;4999225;28;20702;-80
2022/04/22 08:51:44;;;;;;;23.63;18.60;;;;;;;10.23;68.84;94216.31;5018466;28;20194;-79
2022/04/22 08:54:11;;;;;;;25.03;21.40;;;;;;;10.42;68.71;94215.81;5031041;28;20690;-80
2022/04/22 08:56:37;;;;;;;27.57;21.43;;;;;;;9.76;71.63;94230.34;5020745;28;20183;-80
2022/04/22 08:59:02;;;;;;;24.20;21.60;;;;;;;9.23;73.48;94218.25;5024132;28;20214;-80
2022/04/22 09:01:27;;;;;;;25.00;21.60;;;;;;;9.47;72.92;94217.28;4998337;28;20187;-80
2022/04/22 09:03:53;;;;;;;26.33;21.83;;;;;;;9.58;73.00;94216.88;5029570;28;20211;-80
2022/04/22 09:06:20;;;;;;;27.27;22.00;;;;;;;9.89;71.20;94207.22;5017225;28;20187;-80
2022/04/22 09:08:45;;;;;;;29.30;21.90;;;;;;;9.99;70.86;94213.97;5009195;28;20211;-81
2022/04/22 09:11:10;;;;;;;27.47;22.07;;;;;;;9.79;71.95;94208.44;4995210;28;20194;-79
2022/04/22 09:13:37;;;;;;;25.90;20.93;;;;;;;10.28;69.71;94203.63;5023743;28;20191;-80
2022/04/22 09:16:02;;;;;;;26.53;20.83;;;;;;;10.05;70.43;94205.44;5028265;28;20248;-81
2022/04/22 09:18:27;;;;;;;26.33;20.97;;;;;;;9.80;71.06;94210.84;5017996;28;20210;-79
2022/04/22 09:20:58;;;;;;;24.60;19.60;;;;;;;10.16;69.64;94199.84;5043114;28;20187;-80
2022/04/22 09:23:24;;;;;;;22.63;19.43;;;;;;;10.26;69.41;94203.00;5025845;28;20198;-80
2022/04/22 09:25:49;;;;;;;26.10;20.37;;;;;;;10.54;69.19;94200.59;5031452;28;20210;-80
2022/04/22 09:28:15;;;;;;;24.03;19.10;;;;;;;10.71;67.21;94198.63;5016547;28;20214;-80
2022/04/22 09:30:41;;;;;;;22.97;19.30;;;;;;;10.66;67.23;94199.16;5026466;28;20195;-79
2022/04/22 09:33:08;;;;;;;24.13;19.20;;;;;;;10.35;68.44;94188.97;5021167;28;20191;-79
2022/04/22 09:42:38;;;;;;;23.63;18.80;;;;;;;10.86;66.32;94195.97;5010517;28;20190;-79
2022/04/22 09:43:50;;;;;;;20.77;18.20;;;;;;;10.89;64.46;94180.84;5016414;28;20201;-80
2022/04/22 09:46:24;;;;;;;21.53;17.80;;;;;;;11.27;64.56;94186.66;5017433;28;20557;-80
2022/04/22 09:48:50;;;;;;;17.37;15.57;;;;;;;11.02;63.56;94173.19;5024799;28;20234;-80
2022/04/22 09:51:24;;;;;;;18.43;16.33;;;;;;;11.33;63.23;94179.91;5007621;28;20210;-80
2022/04/22 09:54:05;;;;;;;22.70;17.50;;;;;;;11.09;64.50;94180.25;5017539;28;20194;-79
2022/04/22 09:56:32;;;;;;;18.77;16.77;;;;;;;10.73;65.24;94175.88;5017999;28;20182;-79
2022/04/22 09:58:57;;;;;;;21.50;17.13;;;;;;;11.17;64.60;94182.75;5007479;28;20241;-80
2022/04/22 10:01:26;;;;;;;20.47;17.27;;;;;;;11.42;65.17;94194.41;5012094;28;20671;-81
2022/04/22 10:03:51;;;;;;;21.73;17.57;;;;;;;11.37;63.40;94190.75;5008578;28;20197;-78
2022/04/22 10:06:18;;;;;;;22.20;17.23;;;;;;;11.39;63.07;94180.94;5018619;28;20187;-79
2022/04/22 10:08:46;;;;;;;21.70;16.57;;;;;;;11.52;62.02;94184.50;5016341;28;20210;-80
2022/04/22 10:11:14;;;;;;;20.43;16.70;;;;;;;11.81;62.36;94186.16;5002080;28;20195;-78
2022/04/22 10:13:41;;;;;;;23.07;17.20;;;;;;;12.11;60.72;94180.78;5024412;28;20674;-78
2022/04/22 10:16:11;;;;;;;23.97;18.77;;;;;;;11.95;62.20;94187.09;5019009;28;20183;-80
2022/04/22 10:18:37;;;;;;;19.30;17.23;;;;;;;11.87;61.61;94185.41;5022415;28;20679;-79
2022/04/22 10:21:03;;;;;;;22.03;17.73;;;;;;;11.96;60.54;94186.09;5008813;28;20298;-79
2022/04/22 10:23:30;;;;;;;18.87;16.17;;;;;;;11.87;61.45;94180.22;5005706;28;20277;-79
2022/04/22 10:25:55;;;;;;;19.43;16.20;;;;;;;11.86;61.36;94180.41;5026367;28;20210;-79
2022/04/22 10:28:23;;;;;;;19.13;16.33;;;;;;;11.42;61.63;94181.41;5012745;28;20641;-79
2022/04/22 10:30:50;;;;;;;19.47;17.33;;;;;;;11.58;62.72;94175.16;5020282;28;20215;-80
2022/04/22 10:33:15;;;;;;;21.03;17.03;;;;;;;11.51;62.56;94172.50;5008353;28;20184;-80
2022/04/22 10:35:44;;;;;;;18.40;16.43;;;;;;;12.11;61.55;94184.19;5024718;28;20665;-80
2022/04/22 10:38:29;;;;;;;18.37;16.27;;;;;;;12.17;60.81;94175.63;4997395;28;20709;-79
2022/04/22 10:40:55;;;;;;;17.97;15.90;;;;;;;12.56;59.53;94176.06;5005491;28;20190;-80
2022/04/22 10:43:23;;;;;;;16.93;14.83;;;;;;;12.91;58.33;94169.78;5006448;28;20192;-80
2022/04/22 10:48:33;;;;;;;18.43;15.00;;;;;;;12.61;57.62;94176.25;5003739;28;20222;-80
2022/04/22 10:51:00;;;;;;;18.43;16.17;;;;;;;12.66;58.77;94182.50;5004859;28;20188;-80
2022/04/22 10:53:27;;;;;;;18.70;15.70;;;;;;;13.06;57.16;94177.44;5007687;28;20191;-80
2022/04/22 10:55:53;;;;;;;17.67;15.77;;;;;;;13.32;58.30;94166.31;5003304;28;20175;-80
2022/04/22 10:58:21;;;;;;;18.60;16.60;;;;;;;13.21;57.70;94174.72;4993906;28;20260;-80
2022/04/22 11:00:51;;;;;;;19.23;16.43;;;;;;;12.63;56.97;94172.50;5017222;28;20182;-80
2022/04/22 11:03:25;;;;;;;20.47;15.37;;;;;;;13.08;57.48;94175.47;5045697;28;20244;-80
2022/04/22 11:06:01;;;;;;;19.80;15.47;;;;;;;13.35;58.60;94165.13;5014914;28;20207;-79
2022/04/22 11:08:29;;;;;;;24.30;17.53;;;;;;;13.31;57.36;94164.69;5015877;28;20198;-78
2022/04/22 11:10:54;;;;;;;19.30;15.97;;;;;;;13.17;56.85;94161.25;5020028;28;20186;-79
2022/04/22 11:13:40;;;;;;;20.57;15.93;;;;;;;13.43;56.48;94165.75;5019978;28;20191;-78
2022/04/22 11:16:13;;;;;;;20.03;15.97;;;;;;;13.81;55.92;94160.75;5010692;28;20202;-80
2022/04/22 11:18:43;;;;;;;19.33;14.93;;;;;;;13.56;56.08;94164.94;4999727;28;20231;-79
2022/04/22 11:21:18;;;;;;;17.50;15.30;;;;;;;14.06;56.33;94154.91;5016821;28;20928;-80
2022/04/22 11:23:44;;;;;;;17.80;15.80;;;;;;;14.11;54.43;94152.50;5032959;28;20560;-79
2022/04/22 11:26:12;;;;;;;17.83;15.53;;;;;;;13.84;53.55;94170.78;5019260;28;20190;-78
2022/04/22 11:28:39;;;;;;;17.70;15.80;;;;;;;14.08;52.66;94163.34;5000765;28;20241;-79
2022/04/22 11:31:08;;;;;;;20.30;16.90;;;;;;;14.06;54.88;94163.56;5021484;28;20651;-78
2022/04/22 11:33:55;;;;;;;22.67;16.83;;;;;;;13.48;55.49;94168.53;5025525;28;20210;-79
2022/04/22 11:36:24;;;;;;;24.23;17.00;;;;;;;14.02;53.95;94158.94;5019393;28;20262;-79
2022/04/22 11:38:54;;;;;;;18.63;16.40;;;;;;;14.09;54.01;94157.91;5018231;28;20234;-79
2022/04/22 11:41:20;;;;;;;20.43;15.97;;;;;;;14.23;53.79;94153.50;5005772;28;20191;-80
2022/04/22 11:43:46;;;;;;;17.10;15.30;;;;;;;14.28;54.97;94143.22;5021832;28;20209;-79
2022/04/22 11:46:12;;;;;;;17.77;15.50;;;;;;;14.53;52.72;94147.81;5015065;28;20214;-79
2022/04/22 11:48:49;;;;;;;17.83;14.67;;;;;;;14.92;51.42;94141.63;5008304;28;20246;-80
2022/04/22 11:51:16;;;;;;;18.90;16.10;;;;;;;15.11;51.27;94145.19;5002466;28;20673;-79
2022/04/22 11:53:49;;;;;;;17.40;15.50;;;;;;;15.07;52.83;94146.59;4994785;28;20186;-78
2022/04/22 11:56:19;;;;;;;17.53;15.73;;;;;;;14.95;50.11;94154.31;5018012;28;20175;-79
2022/04/22 11:58:45;;;;;;;18.73;15.80;;;;;;;14.73;51.88;94144.13;5023400;28;20336;-79
2022/04/22 12:06:40;;;;;;;17.73;15.83;;;;;;;16.01;50.50;94143.97;5013234;28;20321;-79
2022/04/22 12:09:06;;;;;;;16.73;15.00;;;;;;;15.73;49.89;94146.22;5035922;28;20203;-80
2022/04/22 12:11:40;;;;;;;19.90;15.77;;;;;;;14.97;51.17;94150.47;5017559;28;20214;-79
2022/04/22 12:14:06;;;;;;;18.97;16.70;;;;;;;14.88;50.92;94143.06;5003118;28;20182;-80
2022/04/22 12:16:32;;;;;;;19.23;17.23;;;;;;;14.20;52.84;94145.25;5005996;28;20681;-78
2022/04/22 12:19:00;;;;;;;21.17;16.10;;;;;;;14.34;51.85;94150.25;5015641;28;20198;-78
2022/04/22 12:21:25;;;;;;;19.33;17.43;;;;;;;14.09;52.97;94155.31;5020833;28;20492;-78
2022/04/22 12:23:52;;;;;;;20.50;17.27;;;;;;;13.86;53.49;94154.91;5021008;28;20190;-79